Claremont, California
Current Conditions -  °F | °C
As of 5:53 PM on Thursday 18 Dec 2014 (Local Time) from KONT Reporting Station
Broken Clouds Broken Clouds  
Wind Chill: 56°   Ceiling: 20000
Heat Index: 56°   Visibility: 10mi
Dew Point: 45°   Wind: 5mph
Humidity: 67%   Direction: 260°W
Pressure: 30.17"   Gusts: NA
Location:  34.1°N, 117.71°W
Report Text: KONT 190153Z 26004KT 10SM FEW060 SCT080 BKN200 13/07 A3017 RMK AO2 SLP217 T01330072
Loading
Personal Weather Stations






























Interactive Weather Map New forecast layout! Learn more

10-Day Weather Forecast

Advertisements
Track Severe Weather on mobile